createdAt,value
2023-03-17T00:01:58.776Z,6.40
2023-03-17T00:04:30.365Z,6.30
2023-03-17T00:07:03.130Z,6.20
2023-03-17T00:09:42.081Z,6.20
2023-03-17T00:12:16.131Z,6.20
2023-03-17T00:14:49.440Z,6.20
2023-03-17T00:17:19.407Z,6.20
2023-03-17T00:19:54.263Z,6.20
2023-03-17T00:22:24.338Z,6.10
2023-03-17T00:24:53.932Z,6.10
2023-03-17T00:27:27.437Z,6.10
2023-03-17T00:30:00.873Z,6.10
2023-03-17T00:32:30.868Z,6.10
2023-03-17T00:35:01.325Z,6.10
2023-03-17T00:37:30.003Z,6.00
2023-03-17T00:40:01.446Z,6.00
2023-03-17T00:42:31.520Z,6.00
2023-03-17T00:45:00.662Z,6.00
2023-03-17T00:47:29.862Z,6.00
2023-03-17T00:49:58.506Z,5.90
2023-03-17T00:52:30.826Z,5.90
2023-03-17T00:54:59.541Z,5.90
2023-03-17T00:57:28.874Z,5.90
2023-03-17T00:59:58.057Z,5.80
2023-03-17T01:02:27.124Z,5.80
2023-03-17T01:05:05.426Z,5.80
2023-03-17T01:07:37.672Z,5.90
2023-03-17T01:10:14.651Z,5.90
2023-03-17T01:12:43.543Z,5.90
2023-03-17T01:15:12.834Z,5.90
2023-03-17T01:17:41.640Z,5.90
2023-03-17T01:20:19.420Z,5.80
2023-03-17T01:22:50.614Z,5.80
2023-03-17T01:25:20.816Z,5.80
2023-03-17T01:27:50.503Z,5.70
2023-03-17T01:30:29.337Z,5.70
2023-03-17T01:32:58.776Z,5.70
2023-03-17T01:35:29.568Z,5.70
2023-03-17T01:38:02.336Z,5.70
2023-03-17T01:40:34.104Z,5.70
2023-03-17T01:43:04.585Z,5.70
2023-03-17T01:46:11.927Z,5.70
2023-03-17T01:48:44.663Z,5.60
2023-03-17T01:51:25.338Z,5.50
2023-03-17T01:53:59.820Z,5.50
2023-03-17T01:56:28.673Z,5.40
2023-03-17T01:58:59.300Z,5.30
2023-03-17T02:01:33.952Z,5.30
2023-03-17T02:04:03.464Z,5.30
2023-03-17T02:06:33.565Z,5.30
2023-03-17T02:09:04.552Z,5.30
2023-03-17T02:11:35.434Z,5.30
2023-03-17T02:14:04.520Z,5.30
2023-03-17T02:16:33.245Z,5.30
2023-03-17T02:19:02.614Z,5.30
2023-03-17T02:21:41.535Z,5.20
2023-03-17T02:24:17.737Z,5.20
2023-03-17T02:26:48.934Z,5.20
2023-03-17T02:29:17.784Z,5.20
2023-03-17T02:31:50.408Z,5.20
2023-03-17T02:34:21.582Z,5.10
2023-03-17T02:36:52.174Z,5.10
2023-03-17T02:39:20.895Z,5.10
2023-03-17T02:41:51.818Z,5.00
2023-03-17T02:44:22.148Z,5.00
2023-03-17T02:46:51.025Z,5.00
2023-03-17T02:49:20.976Z,5.00
2023-03-17T02:51:51.466Z,5.00
2023-03-17T02:54:20.248Z,5.00
2023-03-17T02:56:48.740Z,4.90
2023-03-17T02:59:18.235Z,4.90
2023-03-17T03:01:48.616Z,4.90
2023-03-17T03:04:17.651Z,4.90
2023-03-17T03:06:46.793Z,4.80
2023-03-17T03:09:18.153Z,4.80
2023-03-17T03:11:46.985Z,4.80
2023-03-17T03:14:16.516Z,4.80
2023-03-17T03:16:45.204Z,4.80
2023-03-17T03:19:14.072Z,4.80
2023-03-17T03:21:42.784Z,4.80
2023-03-17T03:24:12.331Z,4.70
2023-03-17T03:26:42.574Z,4.70
2023-03-17T03:29:11.066Z,4.70
2023-03-17T03:31:39.616Z,4.70
2023-03-17T03:34:08.186Z,4.70
2023-03-17T03:36:37.553Z,4.60
2023-03-17T03:39:08.505Z,4.60
2023-03-17T03:41:41.341Z,4.60
2023-03-17T03:44:11.516Z,4.50
2023-03-17T03:46:40.216Z,4.50
2023-03-17T03:49:10.284Z,4.50
2023-03-17T03:51:38.896Z,4.40
2023-03-17T03:54:07.450Z,4.40
2023-03-17T03:56:36.147Z,4.30
2023-03-17T03:59:04.594Z,4.20
2023-03-17T04:01:34.616Z,4.20
2023-03-17T04:04:04.110Z,4.20
2023-03-17T04:06:32.445Z,4.10
2023-03-17T04:09:00.878Z,4.10
2023-03-17T04:11:29.351Z,4.00
2023-03-17T04:13:57.725Z,4.00
2023-03-17T04:16:26.363Z,4.00
2023-03-17T04:18:56.802Z,4.00
2023-03-17T04:21:25.373Z,3.90
2023-03-17T04:23:53.837Z,3.90
2023-03-17T04:26:23.293Z,3.80
2023-03-17T04:28:52.633Z,3.80
2023-03-17T04:31:21.466Z,3.80
2023-03-17T04:33:50.417Z,3.80
2023-03-17T04:36:24.602Z,3.80
2023-03-17T04:38:53.704Z,3.80
2023-03-17T04:41:22.891Z,3.70
2023-03-17T04:43:53.047Z,3.70
2023-03-17T04:46:22.508Z,3.70
2023-03-17T04:48:51.313Z,3.70
2023-03-17T04:51:19.778Z,3.70
2023-03-17T04:53:50.224Z,3.70
2023-03-17T04:56:19.048Z,3.70
2023-03-17T04:58:50.463Z,3.70
2023-03-17T05:01:19.443Z,3.70
2023-03-17T05:03:48.847Z,3.70
2023-03-17T05:06:18.029Z,3.70
2023-03-17T05:08:48.898Z,3.70
2023-03-17T05:11:17.865Z,3.80
2023-03-17T05:13:47.569Z,3.70
2023-03-17T05:16:19.787Z,3.70
2023-03-17T05:18:49.260Z,3.70
2023-03-17T05:21:17.743Z,3.70
2023-03-17T05:23:46.211Z,3.70
2023-03-17T05:26:16.645Z,3.70
2023-03-17T05:28:46.902Z,3.70
2023-03-17T05:31:15.981Z,3.70
2023-03-17T05:33:44.934Z,3.70
2023-03-17T05:36:14.862Z,3.70
2023-03-17T05:38:43.607Z,3.70
2023-03-17T05:41:13.244Z,3.70
2023-03-17T05:43:44.303Z,3.70
2023-03-17T05:46:13.283Z,3.70
2023-03-17T05:48:42.112Z,3.80
2023-03-17T05:51:10.859Z,3.70
2023-03-17T05:53:44.070Z,3.70
2023-03-17T05:56:13.306Z,3.70
2023-03-17T05:58:43.610Z,3.70
2023-03-17T06:01:12.906Z,3.70
2023-03-17T06:03:42.404Z,3.70
2023-03-17T06:06:10.989Z,3.70
2023-03-17T06:08:39.741Z,3.70
2023-03-17T06:11:08.567Z,3.80
2023-03-17T06:13:37.437Z,3.90
2023-03-17T06:16:10.217Z,4.10
2023-03-17T06:18:39.206Z,4.10
2023-03-17T06:21:08.383Z,4.30
2023-03-17T06:23:37.707Z,4.40
2023-03-17T06:26:06.990Z,4.50
2023-03-17T06:28:35.667Z,4.60
2023-03-17T06:31:07.127Z,4.70
2023-03-17T06:33:37.850Z,4.90
2023-03-17T06:36:08.405Z,5.00
2023-03-17T06:38:37.108Z,5.20
2023-03-17T06:41:07.060Z,5.30
2023-03-17T06:43:36.523Z,5.50
2023-03-17T06:46:08.132Z,5.80
2023-03-17T06:48:40.077Z,6.10
2023-03-17T06:51:08.884Z,6.30
2023-03-17T06:53:37.476Z,6.40
2023-03-17T06:56:06.290Z,6.60
2023-03-17T06:58:34.916Z,6.80
2023-03-17T07:01:04.284Z,7.00
2023-03-17T07:03:32.982Z,7.00
2023-03-17T07:06:03.662Z,7.40
2023-03-17T07:08:34.307Z,8.20
2023-03-17T07:11:04.306Z,9.20
2023-03-17T07:13:35.681Z,10.20
2023-03-17T07:16:04.460Z,10.80
2023-03-17T07:18:33.956Z,11.60
2023-03-17T07:21:05.665Z,11.90
2023-03-17T07:23:34.654Z,12.80
2023-03-17T07:26:03.924Z,13.40
2023-03-17T07:28:32.311Z,14.00
2023-03-17T07:31:03.440Z,15.20
2023-03-17T07:33:34.045Z,16.50
2023-03-17T07:36:05.631Z,17.30
2023-03-17T07:38:34.715Z,17.90
2023-03-17T07:41:03.916Z,18.90
2023-03-17T07:43:36.465Z,19.50
2023-03-17T07:46:06.380Z,19.60
2023-03-17T07:48:37.727Z,20.40
2023-03-17T07:51:08.498Z,21.00
2023-03-17T07:53:38.580Z,21.60
2023-03-17T07:56:08.688Z,22.10
2023-03-17T07:58:37.500Z,22.60
2023-03-17T08:01:18.683Z,23.30
2023-03-17T08:03:47.331Z,23.60
2023-03-17T08:06:17.893Z,23.50
2023-03-17T08:08:47.289Z,23.40
2023-03-17T08:11:15.869Z,23.60
2023-03-17T08:13:44.439Z,23.40
2023-03-17T08:16:13.064Z,23.10
2023-03-17T08:18:41.735Z,23.20
2023-03-17T08:21:11.036Z,23.40
2023-03-17T08:23:40.946Z,23.60
2023-03-17T08:26:09.440Z,23.70
2023-03-17T08:28:38.828Z,24.00
2023-03-17T08:31:14.102Z,24.40
2023-03-17T08:33:43.372Z,24.40
2023-03-17T08:36:12.999Z,24.30
2023-03-17T08:38:43.985Z,24.30
2023-03-17T08:41:14.861Z,24.10
2023-03-17T08:43:44.456Z,24.20
2023-03-17T08:46:18.665Z,24.10
2023-03-17T08:48:52.655Z,24.10
2023-03-17T08:51:24.485Z,24.30
2023-03-17T08:53:57.143Z,24.20
2023-03-17T08:56:26.490Z,24.20
2023-03-17T08:58:56.026Z,24.20
2023-03-17T09:01:26.255Z,24.20
2023-03-17T09:03:56.446Z,24.60
2023-03-17T09:06:26.520Z,24.90
2023-03-17T09:08:57.042Z,25.30
2023-03-17T09:11:27.954Z,25.90
2023-03-17T09:13:58.147Z,26.30
2023-03-17T09:16:28.044Z,26.50
2023-03-17T09:18:57.135Z,26.50
2023-03-17T09:21:25.684Z,26.40
2023-03-17T09:23:56.574Z,26.70
2023-03-17T09:26:26.546Z,26.90
2023-03-17T09:28:55.069Z,27.40
2023-03-17T09:31:24.370Z,27.90
2023-03-17T09:33:54.811Z,28.60
2023-03-17T09:36:23.758Z,29.30
2023-03-17T09:38:52.587Z,29.80
2023-03-17T09:42:06.628Z,30.20
2023-03-17T09:44:59.676Z,30.50
2023-03-17T09:48:05.166Z,30.80
2023-03-17T09:50:40.515Z,31.20
2023-03-17T09:53:18.523Z,31.60
2023-03-17T09:55:49.632Z,31.10
2023-03-17T09:58:21.938Z,31.40
2023-03-17T10:00:50.670Z,31.50
2023-03-17T10:03:19.661Z,31.90
2023-03-17T10:05:48.721Z,32.00
2023-03-17T10:08:32.120Z,31.90
2023-03-17T10:11:11.013Z,31.60
2023-03-17T10:13:55.077Z,31.40
2023-03-17T10:16:30.818Z,31.20
2023-03-17T10:19:07.472Z,31.10
2023-03-17T10:21:40.779Z,31.30
2023-03-17T10:24:12.438Z,31.20
2023-03-17T10:26:45.727Z,30.20
2023-03-17T10:29:18.188Z,29.70
2023-03-17T10:31:47.810Z,29.30
2023-03-17T10:34:19.048Z,29.10
2023-03-17T10:36:51.451Z,28.70
2023-03-17T10:39:24.137Z,28.30
2023-03-17T10:42:11.736Z,27.60
2023-03-17T10:44:46.050Z,27.40
2023-03-17T10:47:41.962Z,26.80
2023-03-17T10:50:23.505Z,26.90
2023-03-17T10:52:58.275Z,26.80
2023-03-17T10:55:31.716Z,27.10
2023-03-17T10:58:07.145Z,27.20
2023-03-17T11:00:39.506Z,27.50
2023-03-17T11:03:24.788Z,27.70
2023-03-17T11:05:58.937Z,27.90
2023-03-17T11:08:35.459Z,28.20
2023-03-17T11:11:09.491Z,28.20
2023-03-17T11:13:39.005Z,28.20
2023-03-17T11:16:19.422Z,28.70
2023-03-17T11:18:51.788Z,29.10
2023-03-17T11:21:24.781Z,29.50
2023-03-17T11:23:55.198Z,29.40
2023-03-17T11:26:48.881Z,29.50
2023-03-17T11:29:30.669Z,29.00
2023-03-17T11:32:11.061Z,29.00
2023-03-17T11:34:57.151Z,28.90
2023-03-17T11:37:41.985Z,29.00
2023-03-17T11:40:21.461Z,28.70
2023-03-17T11:42:58.918Z,28.40
2023-03-17T11:45:34.253Z,27.90
2023-03-17T11:48:25.105Z,27.60
2023-03-17T11:50:59.595Z,27.20
2023-03-17T11:53:58.180Z,27.30
2023-03-17T11:56:37.343Z,27.30
2023-03-17T11:59:12.167Z,26.90
2023-03-17T12:01:51.459Z,26.80
2023-03-17T12:04:30.690Z,26.80
2023-03-17T12:07:09.053Z,26.80
2023-03-17T12:09:42.988Z,26.70
2023-03-17T12:12:16.292Z,26.80
2023-03-17T12:14:52.571Z,26.80
2023-03-17T12:17:27.136Z,26.40
2023-03-17T12:20:10.149Z,26.20
2023-03-17T12:22:44.463Z,26.20
2023-03-17T12:25:22.361Z,26.20
2023-03-17T12:28:00.326Z,26.20
2023-03-17T12:30:35.495Z,26.10
2023-03-17T12:33:19.039Z,26.20
2023-03-17T12:35:49.527Z,26.20
2023-03-17T12:38:22.329Z,26.00
2023-03-17T12:41:17.509Z,25.80
2023-03-17T12:44:01.811Z,25.80
2023-03-17T12:46:50.687Z,25.30
2023-03-17T12:49:45.314Z,25.00
2023-03-17T12:52:37.583Z,25.10
2023-03-17T12:55:13.817Z,25.00
2023-03-17T12:57:46.433Z,24.70
2023-03-17T13:00:25.539Z,24.40
2023-03-17T13:03:10.737Z,23.90
2023-03-17T13:05:39.681Z,23.50
2023-03-17T13:08:16.390Z,23.10
2023-03-17T13:10:49.371Z,22.90
2023-03-17T13:13:38.028Z,22.80
2023-03-17T13:16:27.024Z,22.80
2023-03-17T13:19:14.507Z,22.60
2023-03-17T13:21:47.956Z,22.70
2023-03-17T13:24:40.880Z,23.10
2023-03-17T13:27:14.750Z,23.60
2023-03-17T13:29:48.982Z,24.10
2023-03-17T13:32:40.064Z,24.80
2023-03-17T13:35:25.476Z,25.50
2023-03-17T13:38:33.450Z,26.00
2023-03-17T13:41:33.453Z,26.10
2023-03-17T13:44:28.303Z,26.60
2023-03-17T13:46:57.244Z,26.60
2023-03-17T13:49:32.230Z,26.80
2023-03-17T13:52:09.891Z,27.30
2023-03-17T13:54:44.815Z,27.50
2023-03-17T13:57:38.000Z,27.90
2023-03-17T14:00:24.419Z,28.30
2023-03-17T14:03:06.607Z,28.50
2023-03-17T14:05:38.188Z,28.40
2023-03-17T14:08:09.988Z,28.20
2023-03-17T14:10:38.982Z,28.00
2023-03-17T14:13:20.062Z,27.60
2023-03-17T14:15:51.915Z,26.90
2023-03-17T14:18:23.097Z,26.40
2023-03-17T14:20:55.657Z,26.20
2023-03-17T14:23:25.450Z,25.90
2023-03-17T14:25:57.326Z,26.10
2023-03-17T14:28:29.892Z,26.60
2023-03-17T14:31:02.805Z,27.10
2023-03-17T14:33:33.912Z,27.60
2023-03-17T14:36:06.483Z,27.70
2023-03-17T14:38:37.361Z,27.60
2023-03-17T14:41:08.307Z,27.00
2023-03-17T14:43:38.923Z,26.20
2023-03-17T14:46:09.477Z,26.00
2023-03-17T14:48:41.694Z,25.90
2023-03-17T14:51:18.258Z,25.90
2023-03-17T14:53:47.234Z,26.00
2023-03-17T14:56:15.839Z,26.00
2023-03-17T14:58:48.661Z,26.20
2023-03-17T15:01:20.086Z,26.60
2023-03-17T15:03:59.092Z,26.30
2023-03-17T15:06:29.764Z,26.10
2023-03-17T15:09:00.886Z,25.90
2023-03-17T15:11:29.869Z,25.70
2023-03-17T15:14:08.276Z,25.40
2023-03-17T15:16:38.919Z,25.20
2023-03-17T15:19:11.070Z,25.30
2023-03-17T15:21:43.290Z,25.00
2023-03-17T15:24:31.669Z,24.80
2023-03-17T15:27:02.133Z,24.60
2023-03-17T15:29:32.642Z,24.40
2023-03-17T15:32:20.506Z,24.10
2023-03-17T15:34:50.195Z,23.70
2023-03-17T15:37:21.879Z,23.40
2023-03-17T15:39:51.165Z,23.30
2023-03-17T15:42:20.550Z,23.10
2023-03-17T15:44:51.808Z,23.00
2023-03-17T15:47:21.441Z,23.00
2023-03-17T15:49:53.048Z,23.00
2023-03-17T15:52:25.117Z,22.90
2023-03-17T15:54:54.813Z,22.60
2023-03-17T15:57:23.736Z,22.30
2023-03-17T15:59:54.140Z,22.10
2023-03-17T16:02:30.697Z,21.90
2023-03-17T16:05:01.659Z,21.60
2023-03-17T16:07:31.447Z,21.30
2023-03-17T16:10:00.485Z,21.10
2023-03-17T16:12:29.130Z,20.80
2023-03-17T16:15:00.750Z,20.60
2023-03-17T16:17:33.457Z,20.30
2023-03-17T16:20:02.247Z,19.90
2023-03-17T16:22:42.307Z,19.60
2023-03-17T16:25:29.819Z,19.30
2023-03-17T16:28:00.368Z,19.00
2023-03-17T16:30:34.798Z,18.80
2023-03-17T16:33:13.808Z,18.60
2023-03-17T16:35:43.497Z,18.30
2023-03-17T16:38:13.329Z,18.10
2023-03-17T16:40:43.244Z,17.90
2023-03-17T16:43:25.292Z,17.70
2023-03-17T16:46:01.083Z,17.50
2023-03-17T16:48:29.994Z,17.20
2023-03-17T16:51:00.296Z,17.00
2023-03-17T16:53:28.804Z,16.80
2023-03-17T16:55:57.980Z,16.60
2023-03-17T16:58:28.557Z,16.40
2023-03-17T17:01:01.971Z,16.20
2023-03-17T17:03:33.557Z,16.00
2023-03-17T17:06:01.941Z,15.80
2023-03-17T17:08:30.929Z,15.60
2023-03-17T17:10:59.615Z,15.50
2023-03-17T17:13:28.170Z,15.40
2023-03-17T17:15:59.109Z,15.20
2023-03-17T17:18:27.751Z,15.10
2023-03-17T17:20:57.017Z,14.90
2023-03-17T17:23:27.487Z,14.70
2023-03-17T17:25:56.551Z,14.50
2023-03-17T17:28:26.630Z,14.30
2023-03-17T17:30:55.854Z,14.20
2023-03-17T17:33:26.499Z,14.10
2023-03-17T17:35:55.841Z,14.00
2023-03-17T17:38:26.651Z,13.80
2023-03-17T17:40:56.640Z,13.60
2023-03-17T17:43:25.816Z,13.50
2023-03-17T17:45:54.773Z,13.40
2023-03-17T17:48:27.267Z,13.30
2023-03-17T17:50:57.418Z,13.20
2023-03-17T17:53:26.885Z,13.10
2023-03-17T17:55:55.751Z,13.00
2023-03-17T17:58:27.060Z,12.90
2023-03-17T18:00:57.894Z,12.90
2023-03-17T18:03:29.771Z,12.80
2023-03-17T18:06:01.112Z,12.80
2023-03-17T18:08:30.420Z,12.70
2023-03-17T18:10:59.627Z,12.70
2023-03-17T18:13:28.454Z,12.60
2023-03-17T18:15:58.571Z,12.70
2023-03-17T18:18:30.287Z,12.60
2023-03-17T18:20:59.997Z,12.60
2023-03-17T18:23:29.015Z,12.80
2023-03-17T18:26:01.339Z,12.80
2023-03-17T18:28:30.490Z,12.80
2023-03-17T18:31:04.511Z,12.80
2023-03-17T18:33:34.986Z,12.80
2023-03-17T18:36:08.707Z,12.80
2023-03-17T18:38:38.221Z,12.80
2023-03-17T18:41:11.183Z,12.80
2023-03-17T18:43:41.185Z,12.90
2023-03-17T18:46:09.983Z,12.90
2023-03-17T18:48:40.999Z,12.80
2023-03-17T18:51:10.042Z,12.80
2023-03-17T18:53:40.443Z,12.80
2023-03-17T18:56:10.094Z,12.70
2023-03-17T18:58:39.133Z,12.70
2023-03-17T19:01:08.361Z,12.70
2023-03-17T19:03:37.224Z,12.70
2023-03-17T19:06:16.439Z,12.80
2023-03-17T19:08:45.434Z,12.70
2023-03-17T19:11:15.882Z,12.60
2023-03-17T19:13:45.739Z,12.60
2023-03-17T19:16:16.790Z,12.70
2023-03-17T19:18:46.441Z,12.70
2023-03-17T19:21:16.841Z,12.60
2023-03-17T19:23:46.092Z,12.50
2023-03-17T19:26:14.924Z,12.40
2023-03-17T19:28:44.178Z,12.20
2023-03-17T19:31:16.330Z,12.20
2023-03-17T19:33:45.944Z,12.20
2023-03-17T19:36:21.139Z,12.10
2023-03-17T19:38:50.589Z,12.10
2023-03-17T19:41:19.362Z,12.10
2023-03-17T19:43:50.611Z,12.00
2023-03-17T19:46:19.311Z,12.00
2023-03-17T19:48:47.971Z,12.10
2023-03-17T19:51:18.793Z,12.10
2023-03-17T19:53:48.306Z,12.00
2023-03-17T19:56:17.069Z,11.90
2023-03-17T19:58:45.869Z,11.90
2023-03-17T20:01:18.242Z,12.00
2023-03-17T20:03:47.481Z,12.00
2023-03-17T20:06:18.630Z,11.90
2023-03-17T20:08:47.331Z,11.80
2023-03-17T20:11:17.822Z,11.80
2023-03-17T20:13:47.014Z,11.80
2023-03-17T20:16:16.962Z,11.70
2023-03-17T20:18:45.924Z,11.60
2023-03-17T20:21:18.049Z,11.50
2023-03-17T20:23:47.275Z,11.50
2023-03-17T20:26:16.443Z,11.50
2023-03-17T20:28:47.933Z,11.40
2023-03-17T20:31:16.691Z,11.30
2023-03-17T20:33:45.906Z,11.30
2023-03-17T20:36:14.681Z,11.30
2023-03-17T20:38:44.637Z,11.30
2023-03-17T20:41:19.239Z,11.30
2023-03-17T20:43:48.176Z,11.30
2023-03-17T20:46:21.333Z,11.30
2023-03-17T20:48:51.704Z,11.30
2023-03-17T20:51:21.134Z,11.30
2023-03-17T20:53:51.354Z,11.30
2023-03-17T20:56:22.695Z,11.20
2023-03-17T20:58:53.363Z,11.10
2023-03-17T21:01:23.826Z,11.10
2023-03-17T21:03:53.143Z,11.10
2023-03-17T21:06:24.729Z,11.00
2023-03-17T21:08:57.116Z,11.00
2023-03-17T21:11:26.791Z,10.90
2023-03-17T21:13:59.582Z,10.80
2023-03-17T21:16:30.196Z,10.80
2023-03-17T21:19:00.741Z,10.90
2023-03-17T21:21:30.423Z,10.80
2023-03-17T21:24:15.956Z,10.90
2023-03-17T21:26:45.115Z,10.80
2023-03-17T21:29:14.116Z,10.80
2023-03-17T21:31:43.303Z,10.80
2023-03-17T21:34:15.940Z,10.80
2023-03-17T21:36:46.905Z,10.70
2023-03-17T21:39:17.944Z,10.70
2023-03-17T21:41:50.251Z,10.70
2023-03-17T21:44:22.810Z,10.60
2023-03-17T21:46:57.160Z,10.60
2023-03-17T21:49:26.252Z,10.60
2023-03-17T21:51:56.967Z,10.60
2023-03-17T21:54:28.719Z,10.60
2023-03-17T21:56:58.982Z,10.60
2023-03-17T21:59:35.830Z,10.60
2023-03-17T22:02:06.264Z,10.60
2023-03-17T22:04:35.317Z,10.60
2023-03-17T22:07:09.606Z,10.60
2023-03-17T22:09:39.368Z,10.60
2023-03-17T22:12:08.131Z,10.60
2023-03-17T22:14:37.065Z,10.50
2023-03-17T22:17:08.826Z,10.50
2023-03-17T22:19:37.522Z,10.50
2023-03-17T22:22:06.486Z,10.70
2023-03-17T22:24:35.148Z,10.90
2023-03-17T22:27:07.505Z,11.00
2023-03-17T22:29:36.871Z,11.10
2023-03-17T22:32:06.089Z,11.10
2023-03-17T22:34:35.034Z,11.00
2023-03-17T22:37:04.396Z,11.00
2023-03-17T22:39:34.735Z,11.00
2023-03-17T22:42:05.436Z,11.10
2023-03-17T22:44:34.043Z,11.20
2023-03-17T22:47:02.628Z,11.30
2023-03-17T22:49:31.419Z,11.30
2023-03-17T22:51:59.919Z,11.40
2023-03-17T22:54:28.578Z,11.40
2023-03-17T22:56:57.484Z,11.40
2023-03-17T22:59:27.742Z,11.40
2023-03-17T23:01:56.487Z,11.40
2023-03-17T23:04:25.701Z,11.40
2023-03-17T23:06:57.129Z,11.40
2023-03-17T23:09:32.698Z,11.30
2023-03-17T23:12:01.870Z,11.30
2023-03-17T23:14:33.262Z,11.30
2023-03-17T23:17:03.503Z,11.30
2023-03-17T23:19:32.268Z,11.30
2023-03-17T23:22:01.020Z,11.20
2023-03-17T23:24:32.671Z,11.20
2023-03-17T23:27:01.864Z,11.10
2023-03-17T23:29:32.932Z,11.00
2023-03-17T23:32:01.997Z,10.90
2023-03-17T23:34:30.819Z,10.90
2023-03-17T23:36:59.879Z,10.80
2023-03-17T23:39:28.432Z,10.80
2023-03-17T23:41:56.970Z,10.70
2023-03-17T23:44:27.287Z,10.70
2023-03-17T23:46:57.721Z,10.60
2023-03-17T23:49:26.291Z,10.60
2023-03-17T23:51:56.412Z,10.50
2023-03-17T23:54:25.403Z,10.40
2023-03-17T23:57:02.168Z,10.40
2023-03-17T23:59:30.844Z,10.40
